Time;durP1;ratioP1;P1;durP2;ratioP2;P2;SDS_P1;SDS_P2;PMS_P1;PMS_P2;Temp;Humidity;BMP_temperature;BMP_pressure;BME280_temperature;BME280_humidity;BME280_pressure;Samples;Min_cycle;Max_cycle;Signal;HPM_P1;HPM_P2
2023/03/23 00:02:27;;;;;;;1999.90;999.90;;;30.00;99.20;;;;;;5028845;28;20456;-71
2023/03/23 00:04:55;;;;;;;1999.90;999.90;;;29.60;99.90;;;;;;5036819;28;20119;-71
2023/03/23 00:07:27;;;;;;;1999.90;999.90;;;29.40;99.90;;;;;;5027230;28;20489;-69
2023/03/23 00:09:56;;;;;;;1999.90;999.90;;;29.00;99.90;;;;;;5029326;28;20033;-69
2023/03/23 00:12:34;;;;;;;1999.90;999.90;;;28.60;99.90;;;;;;5024561;28;20034;-69
2023/03/23 00:15:06;;;;;;;1999.90;999.90;;;28.10;99.90;;;;;;5035882;28;20031;-70
2023/03/23 00:17:34;;;;;;;1999.90;999.90;;;27.80;99.90;;;;;;5028363;28;20144;-70
2023/03/23 00:20:05;;;;;;;1999.90;999.90;;;27.40;99.90;;;;;;5032368;28;20034;-72
2023/03/23 00:22:37;;;;;;;1999.90;999.90;;;27.20;99.90;;;;;;5032817;28;20050;-70
2023/03/23 00:25:06;;;;;;;1999.90;999.90;;;26.90;99.90;;;;;;5034977;28;20052;-71
2023/03/23 00:27:33;;;;;;;1999.90;999.90;;;26.60;99.90;;;;;;5030632;28;20673;-71
2023/03/23 00:30:00;;;;;;;1999.90;999.90;;;26.40;99.90;;;;;;5034047;28;20040;-71
2023/03/23 00:32:28;;;;;;;1999.90;999.90;;;26.20;99.90;;;;;;5028914;28;20531;-71
2023/03/23 00:34:59;;;;;;;1999.90;999.90;;;26.00;99.90;;;;;;5038983;28;20035;-72
2023/03/23 00:37:27;;;;;;;1999.90;999.90;;;25.80;99.90;;;;;;5023090;28;20033;-71
2023/03/23 00:39:57;;;;;;;1999.90;999.90;;;25.60;99.90;;;;;;5027615;28;20032;-71
2023/03/23 00:42:25;;;;;;;1999.90;999.90;;;25.50;99.90;;;;;;5027187;28;20050;-72
2023/03/23 00:44:59;;;;;;;1999.90;999.90;;;25.50;99.90;;;;;;5023262;28;20132;-71
2023/03/23 00:47:27;;;;;;;1999.90;999.90;;;25.40;99.90;;;;;;5031809;28;20522;-70
2023/03/23 00:49:56;;;;;;;1999.90;999.90;;;25.40;99.90;;;;;;5025098;28;20194;-70
2023/03/23 00:52:23;;;;;;;1999.90;999.90;;;25.30;99.90;;;;;;5032140;28;20037;-70
2023/03/23 00:54:51;;;;;;;1999.90;999.90;;;25.30;99.90;;;;;;5035990;28;20040;-70
2023/03/23 00:57:18;;;;;;;1999.90;999.90;;;25.30;99.90;;;;;;5036023;28;20037;-71
2023/03/23 00:59:45;;;;;;;1999.90;999.90;;;25.30;99.90;;;;;;5030181;28;20033;-70
2023/03/23 01:02:13;;;;;;;1999.90;999.90;;;25.40;99.90;;;;;;5030838;28;20097;-71
2023/03/23 01:04:44;;;;;;;1999.90;999.90;;;25.40;99.90;;;;;;5029483;28;20105;-70
2023/03/23 01:07:17;;;;;;;1999.90;999.90;;;25.50;99.90;;;;;;5029487;28;20080;-70
2023/03/23 01:09:45;;;;;;;1999.90;999.90;;;25.50;99.90;;;;;;5034484;28;20546;-70
2023/03/23 01:12:13;;;;;;;1999.90;999.90;;;25.60;99.90;;;;;;5029151;28;20088;-70
2023/03/23 01:14:40;;;;;;;1999.90;999.90;;;25.60;99.90;;;;;;5031981;28;20103;-70
2023/03/23 01:17:07;;;;;;;1999.90;999.90;;;25.70;99.90;;;;;;5035129;28;20285;-70
2023/03/23 01:19:35;;;;;;;1999.90;999.90;;;25.70;99.90;;;;;;5034902;28;20021;-69
2023/03/23 01:22:02;;;;;;;1999.90;999.90;;;25.80;99.90;;;;;;5037988;28;20029;-70
2023/03/23 01:24:31;;;;;;;1999.90;999.90;;;25.80;99.90;;;;;;5034313;28;20495;-70
2023/03/23 01:27:01;;;;;;;1999.90;999.90;;;25.90;99.90;;;;;;5034269;28;20033;-70
2023/03/23 01:29:29;;;;;;;1999.90;999.90;;;25.90;99.90;;;;;;5034589;28;20033;-70
2023/03/23 01:31:56;;;;;;;1999.90;999.90;;;26.00;99.90;;;;;;5034921;28;20025;-69
2023/03/23 01:34:24;;;;;;;1999.90;999.90;;;26.00;99.90;;;;;;5038559;28;20095;-70
2023/03/23 01:36:52;;;;;;;1999.90;999.90;;;26.00;99.90;;;;;;5033484;28;20067;-70
2023/03/23 01:39:20;;;;;;;1999.90;999.90;;;26.00;99.90;;;;;;5031895;28;20025;-70
2023/03/23 01:41:47;;;;;;;1999.90;999.90;;;26.00;99.90;;;;;;5032339;28;20087;-70
2023/03/23 01:44:17;;;;;;;1999.90;999.90;;;26.00;99.90;;;;;;5027780;28;20024;-72
2023/03/23 01:46:45;;;;;;;1999.90;999.90;;;26.00;99.90;;;;;;5028864;28;20092;-70
2023/03/23 01:49:28;;;;;;;1999.90;999.90;;;26.00;99.90;;;;;;5040932;28;20195;-71
2023/03/23 01:52:05;;;;;;;1999.90;999.90;;;26.00;99.90;;;;;;5036473;28;20472;-70
2023/03/23 01:54:33;;;;;;;1999.90;999.90;;;26.10;99.90;;;;;;5032138;28;20124;-70
2023/03/23 01:57:16;;;;;;;1999.90;999.90;;;26.10;99.90;;;;;;5032956;28;20121;-70
2023/03/23 01:59:50;;;;;;;1999.90;999.90;;;26.20;99.90;;;;;;5044297;28;20112;-70
2023/03/23 02:02:20;;;;;;;1999.90;999.90;;;26.20;99.90;;;;;;5042923;28;20037;-70
2023/03/23 02:04:48;;;;;;;1999.90;999.90;;;26.30;99.90;;;;;;5041555;28;20514;-70
2023/03/23 02:07:18;;;;;;;1999.90;999.90;;;26.50;99.90;;;;;;5034348;28;20048;-70
2023/03/23 02:09:45;;;;;;;1999.90;999.90;;;26.70;99.90;;;;;;5027277;28;20033;-70
2023/03/23 02:12:13;;;;;;;1999.90;999.90;;;26.90;99.90;;;;;;5032259;28;20022;-70
2023/03/23 02:14:40;;;;;;;1999.90;999.90;;;27.30;99.90;;;;;;5035016;28;20029;-70
2023/03/23 02:17:10;;;;;;;1999.90;999.90;;;27.90;99.90;;;;;;5036009;28;20113;-70
2023/03/23 02:19:57;;;;;;;1999.90;999.90;;;28.30;99.90;;;;;;5032323;28;20523;-70
2023/03/23 02:22:48;;;;;;;1999.90;999.90;;;28.60;99.90;;;;;;5034952;28;20026;-70
2023/03/23 02:25:52;;;;;;;1999.90;999.90;;;28.70;99.90;;;;;;5037308;28;20040;-70
2023/03/23 02:29:04;;;;;;;1999.90;999.90;;;28.80;99.90;;;;;;5033652;28;20463;-70
2023/03/23 02:32:07;;;;;;;1999.90;999.90;;;28.90;99.90;;;;;;5026436;28;20048;-70
2023/03/23 02:34:55;;;;;;;1999.90;999.90;;;29.10;99.90;;;;;;5038912;28;20060;-70
2023/03/23 02:37:36;;;;;;;1999.90;999.90;;;29.20;99.90;;;;;;5037890;28;20109;-70
2023/03/23 02:40:17;;;;;;;1999.90;999.90;;;29.20;99.90;;;;;;5037084;28;20429;-70
2023/03/23 02:42:48;;;;;;;1999.90;999.90;;;29.10;99.90;;;;;;5034346;28;20037;-70
2023/03/23 02:45:17;;;;;;;1999.90;999.90;;;29.00;99.90;;;;;;5039449;28;20067;-70
2023/03/23 02:47:47;;;;;;;1999.90;999.90;;;29.00;99.90;;;;;;5034993;28;20033;-70
2023/03/23 02:50:17;;;;;;;1999.90;999.90;;;29.20;99.90;;;;;;5037415;28;20538;-71
2023/03/23 02:52:46;;;;;;;1999.90;999.90;;;29.40;99.90;;;;;;5030452;28;20123;-70
2023/03/23 02:55:15;;;;;;;1999.90;999.90;;;29.40;99.90;;;;;;5034918;28;20032;-70
2023/03/23 02:57:44;;;;;;;1999.90;999.90;;;29.30;99.90;;;;;;5033009;28;20064;-70
2023/03/23 03:00:16;;;;;;;1999.90;999.90;;;29.10;99.90;;;;;;5038389;28;20032;-69
2023/03/23 03:02:55;;;;;;;1999.90;999.90;;;28.90;99.90;;;;;;5031576;28;20037;-69
2023/03/23 03:05:40;;;;;;;1999.90;999.90;;;28.60;99.90;;;;;;5035439;28;20021;-69
2023/03/23 03:08:28;;;;;;;1999.90;999.90;;;28.40;99.90;;;;;;5041953;28;20087;-70
2023/03/23 03:11:02;;;;;;;1999.90;999.90;;;28.10;99.90;;;;;;5036226;28;20718;-69
2023/03/23 03:13:51;;;;;;;1999.90;999.90;;;27.80;99.90;;;;;;5031657;28;20539;-70
2023/03/23 03:16:18;;;;;;;1999.90;999.90;;;27.40;99.90;;;;;;5028444;28;20061;-70
2023/03/23 03:19:15;;;;;;;1999.90;999.90;;;27.10;99.90;;;;;;5029399;28;20036;-70
2023/03/23 03:21:46;;;;;;;1999.90;999.90;;;26.80;99.90;;;;;;5028466;28;20045;-70
2023/03/23 03:24:19;;;;;;;1999.90;999.90;;;26.60;99.90;;;;;;5035276;28;20549;-70
2023/03/23 03:26:48;;;;;;;1999.90;999.90;;;26.30;99.90;;;;;;5047203;28;20032;-70
2023/03/23 03:29:20;;;;;;;1999.90;999.90;;;26.10;99.90;;;;;;5030217;28;20033;-70
2023/03/23 03:31:49;;;;;;;1999.90;999.90;;;25.80;99.90;;;;;;5039822;28;20079;-70
2023/03/23 03:34:17;;;;;;;1999.90;999.90;;;25.70;99.90;;;;;;5028803;28;20056;-71
2023/03/23 03:36:46;;;;;;;1999.90;999.90;;;25.60;99.90;;;;;;5034621;28;20101;-70
2023/03/23 03:39:17;;;;;;;1999.90;999.90;;;25.50;99.90;;;;;;5030904;28;20531;-70
2023/03/23 03:41:45;;;;;;;1999.90;999.90;;;25.50;99.90;;;;;;5033754;28;20526;-70
2023/03/23 03:44:12;;;;;;;1999.90;999.90;;;25.50;99.90;;;;;;5035981;28;20036;-71
2023/03/23 03:46:39;;;;;;;1999.90;999.90;;;25.70;99.90;;;;;;5040611;28;20056;-71
2023/03/23 03:49:11;;;;;;;1999.90;999.90;;;25.90;99.90;;;;;;5034628;28;20041;-70
2023/03/23 03:51:40;;;;;;;1999.90;999.90;;;26.10;99.90;;;;;;5035808;28;20090;-70
2023/03/23 03:54:08;;;;;;;1999.90;999.90;;;26.20;99.90;;;;;;5032147;28;20065;-68
2023/03/23 03:56:37;;;;;;;1999.90;999.90;;;26.40;99.90;;;;;;5039188;28;20071;-70
2023/03/23 03:59:05;;;;;;;1999.90;999.90;;;26.40;99.90;;;;;;5032272;28;20087;-70
2023/03/23 04:01:33;;;;;;;1999.90;999.90;;;26.40;99.90;;;;;;5035307;28;20053;-70
2023/03/23 04:04:00;;;;;;;1999.90;999.90;;;26.40;99.90;;;;;;5031835;28;20025;-70
2023/03/23 04:06:28;;;;;;;1999.90;999.90;;;26.30;99.90;;;;;;5035292;28;20029;-71
2023/03/23 04:09:01;;;;;;;1999.90;999.90;;;26.30;99.90;;;;;;5028949;28;20108;-71
2023/03/23 04:11:28;;;;;;;1999.90;999.90;;;26.30;99.90;;;;;;5037341;28;20542;-70
2023/03/23 04:13:55;;;;;;;1999.90;999.90;;;26.30;99.90;;;;;;5030002;28;20455;-70
2023/03/23 04:16:23;;;;;;;1999.90;999.90;;;26.40;99.90;;;;;;5035571;28;20431;-71
2023/03/23 04:18:51;;;;;;;1999.90;999.90;;;26.40;99.90;;;;;;5029374;28;20400;-71
2023/03/23 04:21:18;;;;;;;1999.90;999.90;;;26.50;99.90;;;;;;5032138;28;20446;-71
2023/03/23 04:23:45;;;;;;;1999.90;999.90;;;26.40;99.90;;;;;;5030458;28;20079;-70
2023/03/23 04:26:13;;;;;;;1999.90;999.90;;;26.40;99.90;;;;;;5033835;28;20024;-71
2023/03/23 04:28:41;;;;;;;1999.90;999.90;;;26.20;99.90;;;;;;5031595;28;20032;-71
2023/03/23 04:31:08;;;;;;;1999.90;999.90;;;26.00;99.90;;;;;;5032610;28;20479;-70
2023/03/23 04:33:36;;;;;;;1999.90;999.90;;;25.90;99.90;;;;;;5029432;28;20514;-71
2023/03/23 04:36:06;;;;;;;1999.90;999.90;;;25.70;99.90;;;;;;5031557;28;20044;-70
2023/03/23 04:38:34;;;;;;;1999.90;999.90;;;25.60;99.90;;;;;;5027949;28;20033;-70
2023/03/23 04:41:01;;;;;;;1999.90;999.90;;;25.50;99.90;;;;;;5030492;28;20357;-71
2023/03/23 04:43:29;;;;;;;1999.90;999.90;;;25.30;99.90;;;;;;5026116;28;20144;-71
2023/03/23 04:46:00;;;;;;;1999.90;999.90;;;25.20;99.90;;;;;;5028643;28;20085;-70
2023/03/23 04:48:32;;;;;;;1999.90;999.90;;;25.10;99.90;;;;;;5028046;28;20041;-71
2023/03/23 04:51:03;;;;;;;1999.90;999.90;;;25.00;99.90;;;;;;5029555;28;20026;-71
2023/03/23 04:53:31;;;;;;;1999.90;999.90;;;24.90;99.90;;;;;;5030781;28;20043;-71
2023/03/23 04:56:01;;;;;;;1999.90;999.90;;;24.80;99.90;;;;;;5032904;28;20060;-71
2023/03/23 04:58:28;;;;;;;1999.90;999.90;;;24.70;99.90;;;;;;5029697;28;20025;-71
2023/03/23 05:00:56;;;;;;;1999.90;999.90;;;24.70;99.90;;;;;;5031638;28;20488;-72
2023/03/23 05:03:24;;;;;;;1999.90;999.90;;;24.70;99.90;;;;;;5032192;28;20072;-71
2023/03/23 05:05:52;;;;;;;1999.90;999.90;;;24.80;99.90;;;;;;5035714;28;20037;-70
2023/03/23 05:08:21;;;;;;;1999.90;999.90;;;24.70;99.90;;;;;;5031857;28;20037;-69
2023/03/23 05:10:56;;;;;;;1999.90;999.90;;;24.70;99.90;;;;;;5026518;28;20074;-71
2023/03/23 05:13:24;;;;;;;1999.90;999.90;;;24.70;99.90;;;;;;5033123;28;20507;-71
2023/03/23 05:15:52;;;;;;;1999.90;999.90;;;24.50;99.90;;;;;;5033483;28;20029;-71
2023/03/23 05:18:20;;;;;;;1999.90;999.90;;;24.40;99.90;;;;;;5023891;28;20025;-71
2023/03/23 05:20:48;;;;;;;1999.90;999.90;;;24.20;99.90;;;;;;5034135;28;20722;-73
2023/03/23 05:23:16;;;;;;;1999.90;999.90;;;24.10;99.90;;;;;;5031860;28;20040;-71
2023/03/23 05:25:43;;;;;;;1999.90;999.90;;;24.10;99.90;;;;;;5033246;28;20028;-71
2023/03/23 05:28:12;;;;;;;1999.90;999.90;;;24.00;99.90;;;;;;5030496;28;20033;-71
2023/03/23 05:30:40;;;;;;;1999.90;999.90;;;23.90;99.90;;;;;;5034830;28;20026;-74
2023/03/23 05:33:07;;;;;;;1999.90;999.90;;;23.80;99.90;;;;;;5024438;28;20030;-72
2023/03/23 05:35:35;;;;;;;1999.90;999.90;;;23.80;99.90;;;;;;5035741;28;20037;-71
2023/03/23 05:38:03;;;;;;;1999.90;999.90;;;23.60;99.90;;;;;;5022743;28;20132;-73
2023/03/23 05:40:30;;;;;;;1999.90;999.90;;;23.50;99.90;;;;;;5023192;28;21371;-72
2023/03/23 05:42:58;;;;;;;1999.90;999.90;;;23.40;99.90;;;;;;5021702;28;20029;-72
2023/03/23 05:45:26;;;;;;;1999.90;999.90;;;23.30;99.90;;;;;;5028362;28;20037;-71
2023/03/23 05:47:54;;;;;;;1999.90;999.90;;;23.20;99.90;;;;;;5015083;28;20169;-71
2023/03/23 05:50:22;;;;;;;1999.90;999.90;;;23.10;99.90;;;;;;5015914;28;20460;-71
2023/03/23 05:52:50;;;;;;;1999.90;999.90;;;23.00;99.90;;;;;;5015239;28;20910;-72
2023/03/23 05:55:17;;;;;;;1999.90;999.90;;;22.90;99.90;;;;;;5035369;28;20022;-71
2023/03/23 05:57:45;;;;;;;1999.90;999.90;;;22.80;99.90;;;;;;5030954;28;20108;-71
2023/03/23 06:00:19;;;;;;;1999.90;999.90;;;22.80;99.90;;;;;;5034781;28;20033;-71
2023/03/23 06:02:48;;;;;;;1999.90;999.90;;;22.70;99.90;;;;;;5032371;28;20043;-71
2023/03/23 06:05:15;;;;;;;1999.90;999.90;;;22.70;99.90;;;;;;5020755;28;20037;-70
2023/03/23 06:07:44;;;;;;;1999.90;999.90;;;22.60;99.90;;;;;;5020745;28;20234;-70
2023/03/23 06:10:11;;;;;;;1999.90;999.90;;;22.60;99.90;;;;;;5028684;28;20029;-71
2023/03/23 06:12:40;;;;;;;1999.90;999.90;;;22.60;99.90;;;;;;5023769;28;20476;-70
2023/03/23 06:15:08;;;;;;;1999.90;999.90;;;22.80;99.90;;;;;;5037416;28;20082;-69
2023/03/23 06:17:36;;;;;;;1999.90;999.90;;;22.70;99.90;;;;;;5034107;28;20091;-68
2023/03/23 06:20:09;;;;;;;1999.90;999.90;;;22.60;99.90;;;;;;5030476;28;20029;-68
2023/03/23 06:22:39;;;;;;;1999.90;999.90;;;22.50;99.90;;;;;;5031206;28;20040;-70
2023/03/23 06:25:07;;;;;;;1999.90;999.90;;;22.40;99.90;;;;;;5030963;28;20520;-69
2023/03/23 06:27:35;;;;;;;1999.90;999.90;;;22.30;99.90;;;;;;5031488;28;20041;-70
2023/03/23 06:30:03;;;;;;;1999.90;999.90;;;22.20;99.90;;;;;;5032722;28;20112;-70
2023/03/23 06:32:32;;;;;;;1999.90;999.90;;;22.10;99.90;;;;;;5031131;28;20499;-68
2023/03/23 06:34:59;;;;;;;1999.90;999.90;;;22.00;99.90;;;;;;5038728;28;20053;-71
2023/03/23 06:37:27;;;;;;;1999.90;999.90;;;22.00;99.90;;;;;;5032474;28;20492;-69
2023/03/23 06:39:54;;;;;;;1999.90;999.90;;;21.90;99.90;;;;;;5029965;28;20052;-69
2023/03/23 06:42:26;;;;;;;1999.90;999.90;;;21.80;99.90;;;;;;5031705;28;22203;-68
2023/03/23 06:44:56;;;;;;;1999.90;999.90;;;21.80;99.90;;;;;;5034347;28;20042;-72
2023/03/23 06:47:24;;;;;;;1999.90;999.90;;;21.70;99.90;;;;;;5029534;28;20129;-71
2023/03/23 06:49:52;;;;;;;1999.90;999.90;;;21.70;99.90;;;;;;5039808;28;20052;-71
2023/03/23 06:52:19;;;;;;;1999.90;999.90;;;21.60;99.90;;;;;;5037542;28;20039;-71
2023/03/23 06:54:47;;;;;;;1999.90;999.90;;;21.50;99.90;;;;;;5037012;28;20029;-72
2023/03/23 06:57:15;;;;;;;1999.90;999.90;;;21.50;99.90;;;;;;5025898;28;20078;-71
2023/03/23 06:59:43;;;;;;;1999.90;999.90;;;21.40;99.90;;;;;;5038388;28;20038;-71
2023/03/23 07:02:12;;;;;;;1999.90;999.90;;;21.40;99.90;;;;;;5036581;28;20033;-70
2023/03/23 07:04:40;;;;;;;1999.90;999.90;;;21.30;99.90;;;;;;5029375;28;20083;-70
2023/03/23 07:07:10;;;;;;;1999.90;999.90;;;21.30;99.90;;;;;;5034724;28;20507;-70
2023/03/23 07:09:38;;;;;;;1999.90;999.90;;;21.30;99.90;;;;;;5036775;28;20120;-71
2023/03/23 07:12:07;;;;;;;1999.90;999.90;;;21.30;99.90;;;;;;5018693;28;20021;-70
2023/03/23 07:14:35;;;;;;;1999.90;999.90;;;21.20;99.90;;;;;;5030205;28;20033;-69
2023/03/23 07:17:04;;;;;;;1999.90;999.90;;;21.20;99.90;;;;;;5023992;28;20264;-72
2023/03/23 07:19:31;;;;;;;1999.90;999.90;;;21.10;99.90;;;;;;5034834;28;20017;-68
2023/03/23 07:21:59;;;;;;;1999.90;999.90;;;21.00;99.90;;;;;;5016105;28;20103;-69
2023/03/23 07:24:27;;;;;;;1999.90;999.90;;;21.00;99.90;;;;;;5024061;28;20075;-70
2023/03/23 07:26:55;;;;;;;1999.90;999.90;;;20.90;99.90;;;;;;5035609;28;20045;-69
2023/03/23 07:29:23;;;;;;;1999.90;999.90;;;20.90;99.90;;;;;;5032578;28;20028;-69
2023/03/23 07:31:52;;;;;;;1999.90;999.90;;;20.80;99.90;;;;;;5031855;28;20079;-68
2023/03/23 07:34:20;;;;;;;1999.90;999.90;;;20.70;99.90;;;;;;5018193;28;20092;-70
2023/03/23 07:36:48;;;;;;;1999.90;999.90;;;20.60;99.90;;;;;;5034360;28;20021;-71
2023/03/23 07:39:15;;;;;;;1999.90;999.90;;;20.60;99.90;;;;;;5030338;28;20033;-70
2023/03/23 07:41:42;;;;;;;1999.90;999.90;;;20.60;99.90;;;;;;5033662;28;20484;-71
2023/03/23 07:44:10;;;;;;;1999.90;999.90;;;20.50;99.90;;;;;;5030633;28;20039;-71
2023/03/23 07:46:38;;;;;;;1999.90;999.90;;;20.50;99.90;;;;;;5035689;28;20045;-71
2023/03/23 07:49:05;;;;;;;1999.90;999.90;;;20.50;99.90;;;;;;5031878;28;20033;-71
2023/03/23 07:51:34;;;;;;;1999.90;999.90;;;20.40;99.90;;;;;;5026845;28;20025;-73
2023/03/23 07:54:04;;;;;;;1999.90;999.90;;;20.50;99.90;;;;;;5030068;28;20585;-70
2023/03/23 07:56:32;;;;;;;1999.90;999.90;;;20.60;99.90;;;;;;5028696;28;20033;-71
2023/03/23 07:59:00;;;;;;;1999.90;999.90;;;20.60;99.90;;;;;;5029638;28;20021;-71
2023/03/23 08:01:27;;;;;;;1999.90;999.90;;;20.60;99.90;;;;;;5020043;28;20044;-70
2023/03/23 08:03:57;;;;;;;1999.90;999.90;;;20.60;99.90;;;;;;5018625;28;20706;-71
2023/03/23 08:06:28;;;;;;;1999.90;999.90;;;20.70;99.90;;;;;;5020050;28;20029;-71
2023/03/23 08:08:56;;;;;;;1999.90;999.90;;;20.80;99.90;;;;;;5022991;28;20457;-69
2023/03/23 08:11:24;;;;;;;1999.90;999.90;;;20.80;99.90;;;;;;5023212;28;20036;-71
2023/03/23 08:13:52;;;;;;;1999.90;999.90;;;20.70;99.90;;;;;;5020809;28;20020;-70
2023/03/23 08:16:19;;;;;;;1999.90;999.90;;;20.70;99.90;;;;;;5023725;28;20024;-71
2023/03/23 08:18:47;;;;;;;1999.90;999.90;;;20.60;99.90;;;;;;5021064;28;20048;-70
2023/03/23 08:21:14;;;;;;;1999.90;999.90;;;20.60;99.90;;;;;;5022658;28;20108;-71
2023/03/23 08:23:42;;;;;;;1999.90;999.90;;;20.60;99.90;;;;;;5038999;28;20024;-70
2023/03/23 08:26:10;;;;;;;1999.90;999.90;;;20.50;99.90;;;;;;5030057;28;20075;-71
2023/03/23 08:28:38;;;;;;;1999.90;999.90;;;20.50;99.90;;;;;;5033768;28;20045;-70
2023/03/23 08:31:10;;;;;;;1999.90;999.90;;;20.40;99.90;;;;;;5026494;28;20025;-70
2023/03/23 08:33:38;;;;;;;1999.90;999.90;;;20.30;99.90;;;;;;5033650;28;20033;-69
2023/03/23 08:36:06;;;;;;;1999.90;999.90;;;20.20;99.90;;;;;;5034998;28;20158;-70
2023/03/23 08:38:33;;;;;;;1999.90;999.90;;;20.10;99.90;;;;;;5032289;28;20033;-72
2023/03/23 08:41:05;;;;;;;1999.90;999.90;;;20.10;99.90;;;;;;5037432;28;20036;-71
2023/03/23 08:43:34;;;;;;;1999.90;999.90;;;20.00;99.90;;;;;;5033735;28;20059;-68
2023/03/23 08:46:06;;;;;;;1999.90;999.90;;;20.00;99.90;;;;;;5036933;28;20057;-70
2023/03/23 08:48:38;;;;;;;1999.90;999.90;;;20.00;99.90;;;;;;5035185;28;20566;-68
2023/03/23 08:51:06;;;;;;;1999.90;999.90;;;20.10;99.90;;;;;;5032481;28;20116;-68
2023/03/23 08:53:36;;;;;;;1999.90;999.90;;;20.20;99.90;;;;;;5031988;28;20037;-71
2023/03/23 08:56:13;;;;;;;1999.90;999.90;;;20.20;99.90;;;;;;5039491;28;20033;-69
2023/03/23 08:58:41;;;;;;;1999.90;999.90;;;20.20;99.90;;;;;;5027567;28;20037;-70
2023/03/23 09:01:10;;;;;;;1999.90;999.90;;;20.20;99.90;;;;;;5031815;28;20099;-69
2023/03/23 09:03:39;;;;;;;1999.90;999.90;;;20.10;99.90;;;;;;5030307;28;20041;-70
2023/03/23 09:06:08;;;;;;;1999.90;999.90;;;20.10;99.90;;;;;;5034411;28;20037;-70
2023/03/23 09:08:37;;;;;;;1999.90;999.90;;;20.10;99.90;;;;;;5029919;28;20037;-70
2023/03/23 09:11:09;;;;;;;1999.90;999.90;;;20.20;99.90;;;;;;5034694;28;20025;-69
2023/03/23 09:13:38;;;;;;;1999.90;999.90;;;20.20;99.90;;;;;;5028404;28;20646;-70
2023/03/23 09:16:07;;;;;;;1999.90;999.90;;;20.20;99.90;;;;;;5031980;28;20064;-70
2023/03/23 09:18:34;;;;;;;1999.90;999.90;;;20.20;99.90;;;;;;5027672;28;20024;-69
2023/03/23 09:21:03;;;;;;;1999.90;999.90;;;20.10;99.90;;;;;;5028338;28;20033;-70
2023/03/23 09:23:31;;;;;;;1999.90;999.90;;;20.00;99.90;;;;;;5031020;28;20091;-70
2023/03/23 09:26:00;;;;;;;1999.90;999.90;;;19.90;99.90;;;;;;5029866;28;20039;-71
2023/03/23 09:28:28;;;;;;;1999.90;999.90;;;19.90;99.90;;;;;;5026340;28;20046;-71
2023/03/23 09:30:58;;;;;;;1999.90;999.90;;;19.90;99.90;;;;;;5020994;28;20048;-71
2023/03/23 09:33:26;;;;;;;1999.90;999.90;;;19.90;99.90;;;;;;5023643;28;20510;-69
2023/03/23 09:35:54;;;;;;;1999.90;999.90;;;19.90;99.90;;;;;;5033389;28;20036;-70
2023/03/23 09:38:21;;;;;;;1999.90;999.90;;;19.90;99.90;;;;;;5030692;28;20465;-73
2023/03/23 09:41:01;;;;;;;1999.90;999.90;;;20.00;99.90;;;;;;5034733;28;20112;-70
2023/03/23 09:43:47;;;;;;;1999.90;999.90;;;19.90;99.90;;;;;;5035043;28;20028;-72
2023/03/23 09:46:38;;;;;;;1999.90;999.90;;;19.90;99.90;;;;;;5041359;28;20150;-71
2023/03/23 09:49:24;;;;;;;1999.90;999.90;;;19.90;99.90;;;;;;5030863;28;20048;-69
2023/03/23 09:51:59;;;;;;;1999.90;999.90;;;19.90;99.90;;;;;;5037166;28;20037;-72
2023/03/23 09:54:36;;;;;;;1999.90;999.90;;;19.90;99.90;;;;;;5033741;28;20427;-70
2023/03/23 09:57:05;;;;;;;1999.90;999.90;;;19.90;99.90;;;;;;5031566;28;20113;-71
2023/03/23 09:59:55;;;;;;;1999.90;999.90;;;19.90;99.90;;;;;;5037711;28;20117;-72
2023/03/23 10:02:38;;;;;;;1999.90;999.90;;;19.90;99.90;;;;;;5022038;28;20029;-72
2023/03/23 10:05:32;;;;;;;1999.90;999.90;;;19.90;99.90;;;;;;5021299;28;20018;-72
2023/03/23 10:08:01;;;;;;;1999.90;999.90;;;19.80;99.90;;;;;;5015574;28;20148;-72
2023/03/23 10:11:01;;;;;;;1999.90;999.90;;;19.80;99.90;;;;;;5021058;28;20042;-71
2023/03/23 10:13:57;;;;;;;1999.90;999.90;;;19.80;99.90;;;;;;5025279;28;20125;-71
2023/03/23 10:16:30;;;;;;;1999.90;999.90;;;19.80;99.90;;;;;;5034381;28;20030;-71
2023/03/23 10:19:18;;;;;;;1999.90;999.90;;;19.80;99.90;;;;;;5027032;28;20490;-71
2023/03/23 10:21:56;;;;;;;1999.90;999.90;;;19.80;99.90;;;;;;5025040;28;20167;-71
2023/03/23 10:24:51;;;;;;;1999.90;999.90;;;19.80;99.90;;;;;;5027900;28;20033;-71
2023/03/23 10:27:33;;;;;;;1999.90;999.90;;;19.80;99.90;;;;;;5032744;28;21639;-71
2023/03/23 10:30:19;;;;;;;1999.90;999.90;;;19.70;99.90;;;;;;5038887;28;20104;-71
2023/03/23 10:33:13;;;;;;;1999.90;999.90;;;19.80;99.90;;;;;;5027522;28;20032;-70
2023/03/23 10:35:46;;;;;;;1999.90;999.90;;;19.70;99.90;;;;;;5029280;28;20033;-72
2023/03/23 10:38:25;;;;;;;1999.90;999.90;;;19.70;99.90;;;;;;5037256;28;20039;-70
2023/03/23 10:41:16;;;;;;;1999.90;999.90;;;19.70;99.90;;;;;;5036417;28;20021;-71
2023/03/23 10:43:44;;;;;;;1999.90;999.90;;;19.70;99.90;;;;;;5034528;28;20026;-69
2023/03/23 10:46:33;;;;;;;1999.90;999.90;;;19.80;99.90;;;;;;5035795;28;20420;-69
2023/03/23 10:49:02;;;;;;;1999.90;999.90;;;19.80;99.90;;;;;;5033052;28;20037;-70
2023/03/23 10:51:39;;;;;;;1999.90;999.90;;;19.90;99.90;;;;;;5030270;28;20512;-70
2023/03/23 10:54:07;;;;;;;1999.90;999.90;;;20.10;99.90;;;;;;5029451;28;20060;-71
2023/03/23 10:56:41;;;;;;;1999.90;999.90;;;20.20;99.90;;;;;;5030622;28;20038;-70
2023/03/23 10:59:30;;;;;;;1999.90;999.90;;;20.30;99.90;;;;;;5015788;28;20028;-72
2023/03/23 11:02:03;;;;;;;1999.90;999.90;;;20.30;99.90;;;;;;5018730;28;20365;-73
2023/03/23 11:04:32;;;;;;;1999.90;999.90;;;20.30;99.90;;;;;;5017601;28;21163;-70
2023/03/23 11:07:03;;;;;;;1999.90;999.90;;;20.30;99.90;;;;;;5017229;28;20052;-71
2023/03/23 11:09:51;;;;;;;1999.90;999.90;;;20.30;99.90;;;;;;5018095;28;20033;-71
2023/03/23 11:12:20;;;;;;;1999.90;999.90;;;20.20;99.90;;;;;;5016637;28;20087;-71
2023/03/23 11:14:47;;;;;;;1999.90;999.90;;;20.20;99.90;;;;;;5017826;28;20041;-72
2023/03/23 11:17:26;;;;;;;1999.90;999.90;;;20.30;99.90;;;;;;5015605;28;20535;-68
2023/03/23 11:19:57;;;;;;;1999.90;999.90;;;20.30;99.90;;;;;;5021922;28;20112;-71
2023/03/23 11:22:33;;;;;;;1999.90;999.90;;;20.30;99.90;;;;;;5021550;28;20028;-73
2023/03/23 11:25:06;;;;;;;1999.90;999.90;;;20.20;99.90;;;;;;5028816;28;20029;-71
2023/03/23 11:27:35;;;;;;;1999.90;999.90;;;20.20;99.90;;;;;;5034155;28;20033;-72
2023/03/23 11:30:25;;;;;;;1999.90;999.90;;;20.10;99.90;;;;;;5030783;28;20454;-70
2023/03/23 11:32:53;;;;;;;1999.90;999.90;;;20.00;99.90;;;;;;5030676;28;20036;-71
2023/03/23 11:35:29;;;;;;;1999.90;999.90;;;19.90;99.90;;;;;;5033272;28;20039;-71
2023/03/23 11:37:59;;;;;;;1999.90;999.90;;;19.90;99.90;;;;;;5033604;28;20526;-72
2023/03/23 11:40:31;;;;;;;1999.90;999.90;;;19.90;99.90;;;;;;5033338;28;20383;-72
2023/03/23 11:43:24;;;;;;;1999.90;999.90;;;19.90;99.90;;;;;;5027263;28;20120;-70
2023/03/23 11:46:16;;;;;;;1999.90;999.90;;;19.80;99.90;;;;;;5032817;28;20056;-72
2023/03/23 11:49:18;;;;;;;1999.90;999.90;;;19.90;99.90;;;;;;5030515;28;20086;-72
2023/03/23 11:51:48;;;;;;;1999.90;999.90;;;19.90;99.90;;;;;;5031216;28;20036;-72
2023/03/23 11:54:25;;;;;;;1999.90;999.90;;;19.90;99.90;;;;;;5030907;28;20033;-73
2023/03/23 11:56:54;;;;;;;1999.90;999.90;;;19.90;99.90;;;;;;5037586;28;20503;-73
2023/03/23 11:59:34;;;;;;;1999.90;999.90;;;19.90;99.90;;;;;;5035131;28;20044;-71
2023/03/23 12:02:39;;;;;;;1999.90;999.90;;;19.80;99.90;;;;;;5034660;28;20048;-72
2023/03/23 12:05:43;;;;;;;1999.90;999.90;;;19.80;99.90;;;;;;5035358;28;20037;-71
2023/03/23 12:08:41;;;;;;;1999.90;999.90;;;19.70;99.90;;;;;;5030830;28;20037;-69
2023/03/23 12:11:16;;;;;;;1999.90;999.90;;;19.60;99.90;;;;;;5035519;28;20041;-69
2023/03/23 12:14:01;;;;;;;1999.90;999.90;;;19.60;99.90;;;;;;5035713;28;20021;-69
2023/03/23 12:16:51;;;;;;;1999.90;999.90;;;19.50;99.90;;;;;;5026844;28;20038;-69
2023/03/23 12:19:39;;;;;;;1999.90;999.90;;;19.40;99.90;;;;;;5027319;28;20045;-69
2023/03/23 12:22:28;;;;;;;1999.90;999.90;;;19.40;99.90;;;;;;5030543;28;20041;-69
2023/03/23 12:25:10;;;;;;;1999.90;999.90;;;19.30;99.90;;;;;;5028551;28;20091;-68